createdAt,value
2019-02-16T00:01:01.862Z,14.99
2019-02-16T00:06:10.816Z,14.97
2019-02-16T00:11:20.150Z,15.30
2019-02-16T00:16:29.065Z,14.71
2019-02-16T00:21:38.086Z,14.41
2019-02-16T00:26:47.033Z,14.57
2019-02-16T00:31:56.112Z,13.38
2019-02-16T00:37:05.067Z,13.81
2019-02-16T00:42:14.003Z,13.19
2019-02-16T00:47:23.014Z,14.35
2019-02-16T00:52:31.947Z,14.29
2019-02-16T00:57:41.006Z,14.72
2019-02-16T01:02:49.934Z,13.59
2019-02-16T01:07:58.986Z,14.01
2019-02-16T01:13:07.954Z,13.16
2019-02-16T01:18:16.938Z,13.87
2019-02-16T01:23:25.922Z,14.52
2019-02-16T01:28:34.918Z,13.67
2019-02-16T01:33:45.517Z,12.90
2019-02-16T01:38:52.486Z,11.92
2019-02-16T01:44:01.509Z,12.65
2019-02-16T01:49:10.493Z,13.90
2019-02-16T01:54:20.616Z,14.90
2019-02-16T01:59:19.829Z,14.66
2019-02-16T02:04:28.817Z,13.72
2019-02-16T02:09:37.909Z,13.99
2019-02-16T02:14:46.912Z,13.98
2019-02-16T02:19:56.004Z,14.80
2019-02-16T02:25:05.001Z,14.78
2019-02-16T02:30:14.016Z,14.36
2019-02-16T02:35:23.024Z,11.37
2019-02-16T02:40:32.084Z,11.12
2019-02-16T02:45:41.105Z,12.13
2019-02-16T02:50:50.104Z,13.75
2019-02-16T02:55:59.096Z,16.80
2019-02-16T03:01:08.161Z,16.83
2019-02-16T03:06:17.153Z,15.71
2019-02-16T03:11:26.195Z,16.62
2019-02-16T03:16:35.203Z,17.05
2019-02-16T03:21:44.404Z,17.09
2019-02-16T03:26:53.412Z,17.42
2019-02-16T03:32:02.528Z,16.62
2019-02-16T03:37:11.510Z,17.74
2019-02-16T03:42:20.508Z,17.14
2019-02-16T03:47:29.534Z,15.35
2019-02-16T03:52:38.570Z,15.09
2019-02-16T03:57:47.629Z,15.97
2019-02-16T04:02:56.661Z,16.00
2019-02-16T04:08:05.861Z,16.07
2019-02-16T04:13:14.866Z,15.60
2019-02-16T04:18:23.903Z,15.41
2019-02-16T04:23:32.916Z,16.02
2019-02-16T04:28:42.100Z,16.20
2019-02-16T04:33:51.060Z,15.35
2019-02-16T04:39:00.024Z,15.04
2019-02-16T04:44:08.988Z,15.23
2019-02-16T04:49:17.927Z,15.57
2019-02-16T04:54:26.931Z,14.51
2019-02-16T04:59:35.854Z,14.49
2019-02-16T05:04:44.826Z,15.52
2019-02-16T05:09:53.782Z,13.95
2019-02-16T05:15:02.894Z,14.71
2019-02-16T05:20:11.859Z,15.04
2019-02-16T05:25:20.902Z,15.09
2019-02-16T05:30:29.866Z,15.27
2019-02-16T05:35:38.851Z,16.09
2019-02-16T05:40:47.770Z,15.55
2019-02-16T05:45:56.754Z,14.33
2019-02-16T05:51:05.773Z,13.96
2019-02-16T05:56:15.558Z,14.68
2019-02-16T06:01:24.563Z,13.62
2019-02-16T06:06:33.509Z,13.24
2019-02-16T06:11:42.522Z,13.80
2019-02-16T06:16:51.478Z,14.06
2019-02-16T06:22:00.486Z,14.85
2019-02-16T06:27:09.410Z,14.24
2019-02-16T06:32:18.482Z,14.26
2019-02-16T06:37:27.412Z,14.70
2019-02-16T06:42:36.414Z,12.80
2019-02-16T06:52:54.598Z,14.57
2019-02-16T06:58:03.542Z,14.20
2019-02-16T07:03:12.475Z,15.12
2019-02-16T07:08:21.455Z,13.41
2019-02-16T07:13:30.403Z,13.59
2019-02-16T07:18:39.402Z,11.98
2019-02-16T07:23:48.329Z,12.51
2019-02-16T07:34:03.235Z,13.18
2019-02-16T07:39:12.278Z,14.49
2019-02-16T07:44:21.221Z,15.93
2019-02-16T07:49:30.170Z,15.78
2019-02-16T07:54:39.214Z,15.25
2019-02-16T07:59:48.182Z,14.61
2019-02-16T08:04:57.126Z,15.09
2019-02-16T08:10:06.076Z,15.79
2019-02-16T08:15:15.138Z,17.52
2019-02-16T08:20:24.080Z,17.27
2019-02-16T08:25:33.034Z,17.93
2019-02-16T08:30:41.966Z,17.45
2019-02-16T08:35:50.982Z,16.18
2019-02-16T08:40:59.930Z,17.80
2019-02-16T08:46:08.874Z,15.89
2019-02-16T08:51:17.854Z,18.24
2019-02-16T08:56:26.839Z,16.65
2019-02-16T09:01:35.770Z,17.58
2019-02-16T09:06:44.734Z,19.45
2019-02-16T09:11:53.710Z,18.84
2019-02-16T09:17:02.681Z,19.67
2019-02-16T09:22:13.485Z,19.68
2019-02-16T09:27:20.166Z,19.16
2019-02-16T09:32:29.110Z,18.87
2019-02-16T09:37:38.086Z,20.57
2019-02-16T09:42:47.054Z,20.06
2019-02-16T09:47:56.018Z,19.89
2019-02-16T09:53:04.966Z,20.73
2019-02-16T09:58:13.934Z,19.61
2019-02-16T10:03:22.882Z,20.72
2019-02-16T10:08:31.854Z,20.21
2019-02-16T10:13:40.801Z,21.09
2019-02-16T10:18:49.830Z,20.89
2019-02-16T10:23:58.790Z,20.34
2019-02-16T10:29:07.762Z,21.15
2019-02-16T10:34:16.698Z,21.53
2019-02-16T10:39:25.669Z,22.68
2019-02-16T10:44:34.618Z,20.99
2019-02-16T10:49:43.602Z,21.87
2019-02-16T10:54:52.572Z,21.17
2019-02-16T11:00:01.594Z,21.51
2019-02-16T11:05:10.551Z,22.25
2019-02-16T11:10:19.522Z,21.44
2019-02-16T11:15:30.302Z,22.59
2019-02-16T11:20:36.985Z,21.60
2019-02-16T11:25:45.938Z,22.81
2019-02-16T11:30:54.918Z,22.56
2019-02-16T11:36:03.840Z,24.15
2019-02-16T11:41:18.977Z,22.85
2019-02-16T11:46:21.295Z,24.36
2019-02-16T11:51:30.334Z,23.16
2019-02-16T11:56:39.258Z,22.05
2019-02-16T12:01:48.222Z,23.06
2019-02-16T12:06:57.154Z,23.61
2019-02-16T12:12:06.371Z,23.37
2019-02-16T12:17:15.306Z,23.20
2019-02-16T12:22:24.393Z,22.19
2019-02-16T12:27:33.288Z,22.09
2019-02-16T12:32:42.238Z,23.05
2019-02-16T12:37:51.167Z,22.55
2019-02-16T12:43:00.159Z,23.31
2019-02-16T12:48:09.089Z,22.40
2019-02-16T12:53:18.094Z,23.55
2019-02-16T12:58:27.042Z,22.56
2019-02-16T13:03:36.027Z,22.54
2019-02-16T13:08:44.966Z,23.61
2019-02-16T13:13:53.954Z,22.57
2019-02-16T13:19:02.912Z,23.92
2019-02-16T13:24:11.938Z,23.46
2019-02-16T13:29:20.859Z,22.10
2019-02-16T13:34:29.854Z,22.44
2019-02-16T13:39:38.790Z,22.87
2019-02-16T13:44:47.815Z,22.98
2019-02-16T13:49:56.744Z,22.29
2019-02-16T13:55:05.695Z,22.80
2019-02-16T14:00:15.131Z,23.62
2019-02-16T14:05:24.258Z,23.14
2019-02-16T14:10:33.218Z,22.46
2019-02-16T14:15:42.183Z,22.42
2019-02-16T14:20:51.146Z,23.05
2019-02-16T14:26:00.104Z,24.43
2019-02-16T14:31:09.044Z,23.43
2019-02-16T14:36:18.022Z,23.77
2019-02-16T14:41:26.962Z,23.42
2019-02-16T14:46:35.950Z,23.94
2019-02-16T14:51:44.866Z,24.46
2019-02-16T14:56:53.856Z,24.45
2019-02-16T15:02:02.782Z,24.45
2019-02-16T15:07:11.726Z,25.05
2019-02-16T15:12:20.679Z,24.92
2019-02-16T15:17:29.626Z,24.31
2019-02-16T15:22:38.549Z,26.02
2019-02-16T15:27:47.550Z,23.98
2019-02-16T15:32:56.527Z,25.00
2019-02-16T15:38:05.550Z,24.67
2019-02-16T15:43:14.539Z,24.74
2019-02-16T15:48:23.542Z,24.21
2019-02-16T15:53:32.478Z,24.62
2019-02-16T15:58:41.464Z,24.29
2019-02-16T16:03:50.396Z,24.76
2019-02-16T16:08:59.446Z,24.52
2019-02-16T16:14:08.278Z,24.63
2019-02-16T16:19:15.763Z,23.85
2019-02-16T16:24:24.699Z,24.87
2019-02-16T16:29:33.703Z,23.91
2019-02-16T16:34:42.646Z,24.90
2019-02-16T16:39:51.619Z,24.77
2019-02-16T16:45:00.590Z,25.47
2019-02-16T16:50:16.817Z,24.99
2019-02-16T16:55:18.070Z,24.64
2019-02-16T17:00:27.044Z,25.31
2019-02-16T17:05:36.391Z,25.19
2019-02-16T17:10:45.338Z,25.22
2019-02-16T17:15:54.318Z,25.72
2019-02-16T17:21:03.263Z,25.04
2019-02-16T17:26:12.230Z,24.97
2019-02-16T17:31:21.234Z,25.72
2019-02-16T17:36:30.166Z,25.79
2019-02-16T17:41:39.375Z,24.83
2019-02-16T17:46:48.314Z,25.89
2019-02-16T17:51:57.278Z,29.02
2019-02-16T17:57:06.246Z,28.61
2019-02-16T18:02:15.207Z,26.50
2019-02-16T18:07:24.146Z,21.86
2019-02-16T18:12:33.106Z,24.74
2019-02-16T18:17:42.066Z,23.96
2019-02-16T18:22:51.037Z,26.29
2019-02-16T18:28:00.076Z,28.14
2019-02-16T18:33:09.027Z,29.26
2019-02-16T18:38:18.049Z,29.37
2019-02-16T18:43:27.012Z,30.77
2019-02-16T18:48:36.026Z,26.76
2019-02-16T18:53:45.042Z,30.01
2019-02-16T18:58:53.991Z,28.76
2019-02-16T19:04:02.956Z,34.37
2019-02-16T19:09:12.042Z,29.68
2019-02-16T19:14:20.926Z,28.51
2019-02-16T19:19:29.943Z,27.85
2019-02-16T19:24:38.823Z,31.38
2019-02-16T19:29:47.791Z,31.17
2019-02-16T19:34:56.760Z,32.70
2019-02-16T19:40:05.807Z,23.88
2019-02-16T19:45:14.714Z,22.94
2019-02-16T19:50:23.735Z,25.13
2019-02-16T19:55:32.694Z,34.69
2019-02-16T20:00:41.679Z,33.23
2019-02-16T20:05:50.603Z,30.67
2019-02-16T20:10:59.538Z,29.17
2019-02-16T20:16:08.486Z,32.54
2019-02-16T20:21:15.971Z,30.11
2019-02-16T20:26:24.994Z,26.95
2019-02-16T20:31:33.923Z,25.79
2019-02-16T20:36:42.918Z,31.38
2019-02-16T20:41:51.866Z,31.19
2019-02-16T20:47:00.822Z,29.04
2019-02-16T20:52:09.790Z,34.36
2019-02-16T20:57:18.740Z,34.56
2019-02-16T21:02:27.906Z,38.25
2019-02-16T21:07:36.854Z,33.98
2019-02-16T21:12:45.822Z,30.85
2019-02-16T21:17:54.784Z,27.78
2019-02-16T21:23:03.822Z,28.46
2019-02-16T21:28:12.742Z,29.61
2019-02-16T21:33:21.694Z,36.77
2019-02-16T21:38:30.658Z,32.41
2019-02-16T21:43:39.634Z,29.21
2019-02-16T21:48:48.570Z,31.22
2019-02-16T21:53:57.576Z,34.56
2019-02-16T21:59:07.623Z,35.06
2019-02-16T22:04:16.203Z,43.71
2019-02-16T22:09:23.682Z,34.15
2019-02-16T22:14:32.720Z,38.90
2019-02-16T22:19:41.680Z,36.99
2019-02-16T22:24:50.675Z,38.03
2019-02-16T22:29:59.615Z,38.98
2019-02-16T22:35:08.654Z,39.57
2019-02-16T22:40:17.595Z,38.20
2019-02-16T22:45:26.582Z,41.42
2019-02-16T22:50:35.554Z,42.77
2019-02-16T22:55:44.527Z,40.45
2019-02-16T23:00:53.458Z,42.61
2019-02-16T23:06:02.434Z,45.32
2019-02-16T23:11:11.416Z,43.27
2019-02-16T23:16:20.362Z,40.41
2019-02-16T23:21:29.332Z,36.84
2019-02-16T23:26:38.321Z,34.87
2019-02-16T23:31:47.302Z,39.41
2019-02-16T23:36:56.305Z,42.19
2019-02-16T23:42:05.219Z,41.19
2019-02-16T23:47:14.165Z,45.03
2019-02-16T23:52:25.102Z,42.79
2019-02-16T23:57:31.670Z,42.10
